Time;durP1;ratioP1;P1;durP2;ratioP2;P2;SDS_P1;SDS_P2;PMS_P1;PMS_P2;Temp;Humidity;BMP_temperature;BMP_pressure;BME280_temperature;BME280_humidity;BME280_pressure;Samples;Min_cycle;Max_cycle;Signal;HPM_P1;HPM_P2
2022/09/06 00:01:11;;;;;;;2.40;1.40;;;;;;;24.70;46.23;101587.81;5084728;28;20118;-59
2022/09/06 00:03:39;;;;;;;2.33;1.73;;;;;;;24.71;46.55;101592.19;5083321;28;20044;-59
2022/09/06 00:06:09;;;;;;;3.30;1.45;;;;;;;24.70;46.60;101579.56;5069463;28;20131;-59
2022/09/06 00:08:37;;;;;;;3.90;1.88;;;;;;;24.70;46.16;101607.06;5079026;28;20063;-60
2022/09/06 00:11:06;;;;;;;2.78;1.58;;;;;;;24.65;46.87;101621.69;5093938;28;20079;-60
2022/09/06 00:13:35;;;;;;;3.45;1.38;;;;;;;24.66;47.05;101625.25;5076245;28;20040;-60
2022/09/06 00:16:08;;;;;;;2.28;1.42;;;;;;;24.64;47.22;101619.25;5084067;28;20603;-60
2022/09/06 00:18:36;;;;;;;1.42;1.33;;;;;;;24.62;46.92;101641.53;5076342;28;20048;-60
2022/09/06 00:21:05;;;;;;;3.70;1.70;;;;;;;24.60;47.35;101632.78;5079859;28;20053;-61
2022/09/06 00:23:33;;;;;;;4.18;1.50;;;;;;;24.60;46.50;101610.78;5086347;28;20048;-60
2022/09/06 00:26:04;;;;;;;3.38;1.40;;;;;;;24.58;46.98;101604.75;5070446;28;20048;-60
2022/09/06 00:28:33;;;;;;;2.95;1.83;;;;;;;24.56;47.35;101612.50;5077957;28;20068;-61
2022/09/06 00:31:08;;;;;;;2.83;1.42;;;;;;;24.56;47.48;101608.91;5080513;28;20085;-60
2022/09/06 00:33:36;;;;;;;1.92;1.38;;;;;;;24.53;47.00;101612.25;5076385;28;20048;-60
2022/09/06 00:36:04;;;;;;;4.30;1.70;;;;;;;24.50;46.78;101610.94;5081248;28;20193;-60
2022/09/06 00:38:32;;;;;;;1.95;1.48;;;;;;;24.48;47.41;101602.16;5085121;28;20040;-61
2022/09/06 00:41:00;;;;;;;3.30;1.58;;;;;;;24.45;47.35;101594.50;5076754;28;20088;-60
2022/09/06 00:43:28;;;;;;;2.55;1.60;;;;;;;24.42;47.21;101583.28;5078451;28;20052;-60
2022/09/06 00:45:57;;;;;;;4.68;1.63;;;;;;;24.38;47.28;101588.56;5079461;28;20056;-60
2022/09/06 00:48:25;;;;;;;3.65;1.92;;;;;;;24.37;48.19;101578.69;5082080;28;20371;-60
2022/09/06 00:51:00;;;;;;;3.03;1.70;;;;;;;24.35;47.93;101561.69;5081778;28;20048;-60
2022/09/06 00:53:28;;;;;;;2.47;1.60;;;;;;;24.33;47.95;101561.16;5078385;28;20056;-60
2022/09/06 00:55:56;;;;;;;4.13;1.60;;;;;;;24.32;48.47;101562.28;5083294;28;20055;-60
2022/09/06 00:58:25;;;;;;;2.35;1.77;;;;;;;24.28;49.04;101548.31;5083259;28;20114;-61
2022/09/06 01:00:53;;;;;;;3.17;1.55;;;;;;;24.26;48.52;101547.00;5080078;28;20083;-60
2022/09/06 01:03:24;;;;;;;3.35;1.90;;;;;;;24.24;48.76;101555.53;5071082;28;20059;-60
2022/09/06 01:06:00;;;;;;;2.22;1.70;;;;;;;24.22;48.56;101544.00;5071600;28;20055;-60
2022/09/06 01:08:43;;;;;;;8.02;1.83;;;;;;;24.20;48.92;101531.69;5075811;28;20431;-60
2022/09/06 01:11:28;;;;;;;3.58;1.50;;;;;;;24.18;49.44;101539.41;5071170;28;20072;-60
2022/09/06 01:14:03;;;;;;;2.58;1.70;;;;;;;24.12;49.30;101519.44;5078011;28;20067;-60
2022/09/06 01:16:40;;;;;;;3.03;1.70;;;;;;;24.13;48.79;101532.06;5076006;28;20154;-60
2022/09/06 01:19:46;;;;;;;2.55;1.75;;;;;;;24.12;49.22;101526.84;5072422;28;20068;-60
2022/09/06 01:22:26;;;;;;;3.72;1.92;;;;;;;24.10;49.52;101515.34;5017860;28;20085;-60
2022/09/06 01:25:04;;;;;;;4.15;1.48;;;;;;;24.07;49.08;101497.53;5024201;28;20065;-60
2022/09/06 01:28:10;;;;;;;4.43;1.67;;;;;;;24.07;49.50;101482.97;5017172;28;20053;-60
2022/09/06 01:30:47;;;;;;;3.88;1.55;;;;;;;24.04;49.41;101478.91;5015873;28;20057;-60
2022/09/06 01:33:23;;;;;;;2.13;1.50;;;;;;;24.02;49.47;101470.97;5009464;28;20489;-60
2022/09/06 01:35:55;;;;;;;1.75;1.50;;;;;;;24.01;49.62;101457.53;5017500;28;20072;-60
2022/09/06 01:38:23;;;;;;;3.40;1.55;;;;;;;24.00;49.76;101444.91;5018642;28;20054;-60
2022/09/06 01:40:51;;;;;;;3.10;1.33;;;;;;;23.98;49.08;101439.72;5019662;28;20045;-60
2022/09/06 01:43:23;;;;;;;2.80;1.25;;;;;;;23.98;49.59;101417.75;5016378;28;20045;-60
2022/09/06 01:46:00;;;;;;;2.17;1.38;;;;;;;23.96;49.87;101383.47;5018826;28;20112;-60
2022/09/06 01:48:44;;;;;;;2.72;1.50;;;;;;;23.92;50.09;101347.56;5018457;28;20054;-60
2022/09/06 01:51:23;;;;;;;4.03;2.17;;;;;;;23.91;50.30;101320.41;5019454;28;20081;-60
2022/09/06 01:54:05;;;;;;;2.25;1.50;;;;;;;23.88;50.10;101343.78;5022358;28;20080;-59
2022/09/06 01:56:41;;;;;;;5.15;1.75;;;;;;;23.89;50.34;101380.28;5016993;28;20085;-60
2022/09/06 01:59:22;;;;;;;;;;;;;;;23.88;49.52;101404.19;5065738;28;20128;-60
2022/09/06 02:02:03;;;;;;;3.88;1.83;;;;;;;23.86;49.94;101403.66;5081149;28;19952;-60
2022/09/06 02:04:37;;;;;;;2.45;1.77;;;;;;;23.85;50.28;101407.50;5072460;28;20104;-60
2022/09/06 02:07:11;;;;;;;3.97;1.77;;;;;;;23.84;49.97;101413.31;5073595;28;20087;-60
2022/09/06 02:09:42;;;;;;;3.47;1.58;;;;;;;23.84;49.51;101416.03;5078757;28;20048;-60
2022/09/06 02:12:13;;;;;;;2.58;1.70;;;;;;;23.82;49.68;101401.81;5073711;28;20063;-61
2022/09/06 02:14:46;;;;;;;2.83;1.70;;;;;;;23.81;50.03;101394.69;5075446;28;20064;-61
2022/09/06 02:17:20;;;;;;;3.13;1.50;;;;;;;23.79;49.82;101388.66;5081271;28;20409;-61
2022/09/06 02:19:52;;;;;;;4.00;1.60;;;;;;;23.77;50.16;101388.97;5075540;28;20096;-60
2022/09/06 02:22:24;;;;;;;3.33;1.70;;;;;;;23.77;50.20;101391.72;5080940;28;20076;-60
2022/09/06 02:24:54;;;;;;;3.78;1.95;;;;;;;23.75;50.02;101384.88;5070474;28;20100;-61
2022/09/06 02:27:22;;;;;;;3.00;1.70;;;;;;;23.72;50.53;101380.00;5083104;28;20080;-60
2022/09/06 02:29:50;;;;;;;3.95;1.80;;;;;;;23.69;49.75;101382.22;5083343;28;20110;-60
2022/09/06 02:32:21;;;;;;;5.65;1.80;;;;;;;23.66;50.29;101369.09;5089971;28;20052;-60
2022/09/06 02:34:51;;;;;;;3.97;2.10;;;;;;;23.65;50.18;101374.88;5084074;28;20071;-60
2022/09/06 02:37:19;;;;;;;3.10;1.70;;;;;;;23.63;49.99;101368.88;5085268;28;20068;-60
2022/09/06 02:39:46;;;;;;;2.40;1.50;;;;;;;23.60;50.24;101378.50;5095983;28;20040;-60
2022/09/06 02:42:16;;;;;;;2.70;1.85;;;;;;;23.58;50.34;101375.25;5078036;28;20075;-60
2022/09/06 02:44:44;;;;;;;3.30;1.80;;;;;;;23.57;50.54;101383.78;5087190;28;20063;-60
2022/09/06 02:47:11;;;;;;;2.58;1.88;;;;;;;23.54;50.57;101384.38;5085837;28;20490;-60
2022/09/06 02:49:40;;;;;;;2.40;1.65;;;;;;;23.54;50.79;101389.84;5085415;28;20390;-60
2022/09/06 02:52:08;;;;;;;3.40;2.00;;;;;;;23.51;50.58;101385.75;5086180;28;20079;-60
2022/09/06 02:54:36;;;;;;;3.70;1.83;;;;;;;23.49;50.94;101392.63;5086932;28;20138;-61
2022/09/06 02:57:04;;;;;;;2.40;1.67;;;;;;;23.46;50.58;101393.22;5100318;28;20077;-60
2022/09/06 02:59:31;;;;;;;1.90;1.63;;;;;;;23.46;51.12;101401.44;5082201;28;20082;-60
2022/09/06 03:01:59;;;;;;;2.25;1.80;;;;;;;23.44;51.02;101406.41;5091599;28;20390;-60
2022/09/06 03:04:27;;;;;;;2.67;1.50;;;;;;;23.41;51.54;101407.81;5076416;28;20104;-60
2022/09/06 03:06:56;;;;;;;2.60;1.67;;;;;;;23.38;51.57;101417.47;5083628;28;20076;-59
2022/09/06 03:09:24;;;;;;;3.78;2.25;;;;;;;23.36;51.37;101413.38;5089305;28;20040;-60
2022/09/06 03:11:52;;;;;;;1.90;1.50;;;;;;;23.34;51.18;101407.38;5095433;28;20051;-60
2022/09/06 03:14:19;;;;;;;3.45;2.20;;;;;;;23.32;50.95;101404.91;5090350;28;20063;-60
2022/09/06 03:16:47;;;;;;;2.67;1.70;;;;;;;23.30;51.32;101403.56;5080731;28;20091;-60
2022/09/06 03:19:16;;;;;;;3.42;1.58;;;;;;;23.29;51.58;101402.75;5089155;28;20078;-60
2022/09/06 03:21:44;;;;;;;4.93;1.85;;;;;;;23.27;51.65;101393.19;5087423;28;20087;-60
2022/09/06 03:24:13;;;;;;;3.13;1.98;;;;;;;23.26;51.79;101403.34;5096833;28;20083;-61
2022/09/06 03:26:41;;;;;;;3.08;1.80;;;;;;;23.24;51.34;101411.06;5085305;28;20390;-60
2022/09/06 03:29:08;;;;;;;2.33;1.50;;;;;;;23.22;51.32;101405.03;5090053;28;20055;-60
2022/09/06 03:31:36;;;;;;;4.00;1.85;;;;;;;23.20;51.27;101404.53;5091274;28;20064;-60
2022/09/06 03:34:04;;;;;;;4.53;2.10;;;;;;;23.20;51.20;101407.25;5081293;28;20049;-60
2022/09/06 03:36:37;;;;;;;3.55;1.55;;;;;;;23.19;50.89;101413.03;5088671;28;20128;-60
2022/09/06 03:39:05;;;;;;;3.00;2.20;;;;;;;23.16;51.02;101408.94;5095962;28;20079;-60
2022/09/06 03:41:35;;;;;;;7.18;2.38;;;;;;;23.17;51.18;101398.81;5084878;28;20068;-60
2022/09/06 03:44:02;;;;;;;2.35;1.70;;;;;;;23.15;51.47;101401.84;5097898;28;20134;-60
2022/09/06 03:46:30;;;;;;;2.85;1.92;;;;;;;23.12;51.31;101396.13;5090050;28;20080;-60
2022/09/06 03:48:58;;;;;;;4.10;2.42;;;;;;;23.10;51.19;101396.41;5092291;28;20098;-60
2022/09/06 03:51:26;;;;;;;5.45;2.13;;;;;;;23.11;51.28;101402.72;5087459;28;20060;-60
2022/09/06 03:53:54;;;;;;;3.10;1.92;;;;;;;23.09;50.98;101394.78;5094349;28;20184;-60
2022/09/06 03:56:22;;;;;;;3.05;1.90;;;;;;;23.07;51.23;101394.25;5087434;28;20084;-59
2022/09/06 03:58:51;;;;;;;2.65;1.83;;;;;;;23.04;51.25;101400.31;5090884;28;20076;-60
2022/09/06 04:01:19;;;;;;;4.78;1.58;;;;;;;23.04;51.18;101403.88;5078653;28;20074;-60
2022/09/06 04:03:47;;;;;;;4.63;2.17;;;;;;;23.03;50.78;101406.91;5083564;28;20064;-60
2022/09/06 04:06:14;;;;;;;2.95;1.90;;;;;;;23.01;51.66;101406.38;5087893;28;20521;-59
2022/09/06 04:08:42;;;;;;;2.45;1.90;;;;;;;22.99;51.50;101409.41;5085917;28;20083;-60
2022/09/06 04:11:10;;;;;;;4.40;1.70;;;;;;;22.94;51.22;101411.41;5072560;28;20087;-60
2022/09/06 04:13:38;;;;;;;2.88;1.77;;;;;;;22.95;51.48;101415.78;5085199;28;20072;-60
2022/09/06 04:16:07;;;;;;;2.40;1.75;;;;;;;22.93;51.46;101416.06;5082163;28;20048;-60
2022/09/06 04:18:35;;;;;;;2.38;1.77;;;;;;;22.91;51.55;101415.53;5086117;28;20048;-60
2022/09/06 04:21:03;;;;;;;2.28;1.90;;;;;;;22.91;51.45;101425.69;5088813;28;20094;-60
2022/09/06 04:23:31;;;;;;;2.60;1.92;;;;;;;22.89;51.37;101422.41;5088120;28;20060;-60
2022/09/06 04:26:05;;;;;;;3.80;2.08;;;;;;;22.88;52.07;101418.88;5081616;28;20060;-60
2022/09/06 04:28:35;;;;;;;2.72;1.90;;;;;;;22.86;51.78;101421.06;5078261;28;20067;-60
2022/09/06 04:31:04;;;;;;;2.42;2.00;;;;;;;22.84;52.21;101422.47;5075567;28;20420;-60
2022/09/06 04:33:35;;;;;;;3.40;2.00;;;;;;;22.81;51.88;101414.84;5085041;28;20075;-60
2022/09/06 04:36:06;;;;;;;3.05;2.00;;;;;;;22.79;52.04;101411.53;5083467;28;20060;-59
2022/09/06 04:38:37;;;;;;;3.42;1.98;;;;;;;22.78;51.89;101416.19;5079519;28;20052;-61
2022/09/06 04:41:05;;;;;;;4.18;2.45;;;;;;;22.76;52.20;101423.88;5079377;28;20117;-60
2022/09/06 04:43:33;;;;;;;3.58;2.10;;;;;;;22.74;52.15;101426.91;5085844;28;20083;-61
2022/09/06 04:46:04;;;;;;;5.53;1.90;;;;;;;22.72;51.96;101422.84;5073703;28;20092;-61
2022/09/06 04:48:33;;;;;;;3.72;2.15;;;;;;;22.69;51.74;101431.63;5082430;28;20066;-59
2022/09/06 04:51:01;;;;;;;3.50;2.22;;;;;;;22.67;51.81;101431.09;5070828;28;20076;-60
2022/09/06 04:53:28;;;;;;;4.82;2.17;;;;;;;22.65;52.40;101433.31;5086814;28;20041;-60
2022/09/06 04:55:57;;;;;;;3.05;2.30;;;;;;;22.62;52.54;101423.75;5076066;28;20457;-60
2022/09/06 04:58:25;;;;;;;3.40;2.08;;;;;;;22.62;52.19;101425.66;5081373;28;20117;-59
2022/09/06 05:00:53;;;;;;;3.20;1.90;;;;;;;22.59;52.29;101427.06;5086649;28;20055;-59
2022/09/06 05:03:21;;;;;;;3.22;2.10;;;;;;;22.57;52.30;101428.47;5083921;28;20083;-60
2022/09/06 05:05:50;;;;;;;4.65;2.28;;;;;;;22.56;52.49;101429.56;5091972;28;20087;-61
2022/09/06 05:08:18;;;;;;;5.82;2.30;;;;;;;22.55;52.45;101426.00;5078853;28;20040;-60
2022/09/06 05:10:46;;;;;;;5.30;2.42;;;;;;;22.53;52.26;101419.22;5083323;28;20571;-60
2022/09/06 05:13:14;;;;;;;5.20;2.20;;;;;;;22.51;52.50;101429.63;5075505;28;20437;-60
2022/09/06 05:15:41;;;;;;;6.03;2.88;;;;;;;22.51;52.65;101435.94;5080920;28;20696;-61
2022/09/06 05:18:09;;;;;;;6.05;2.83;;;;;;;22.48;52.53;101431.03;5084551;28;20080;-59
2022/09/06 05:20:42;;;;;;;4.90;2.20;;;;;;;22.46;52.48;101433.25;5084187;28;20067;-60
2022/09/06 05:23:11;;;;;;;3.00;2.25;;;;;;;22.44;52.39;101420.94;5065570;28;20060;-60
2022/09/06 05:25:39;;;;;;;3.40;2.53;;;;;;;22.43;52.32;101427.53;5083902;28;20079;-60
2022/09/06 05:28:06;;;;;;;2.72;2.08;;;;;;;22.42;52.45;101429.44;5086055;28;20052;-60
2022/09/06 05:30:34;;;;;;;5.47;2.25;;;;;;;22.39;52.81;101425.34;5084376;28;20040;-61
2022/09/06 05:33:02;;;;;;;3.92;2.50;;;;;;;22.37;52.93;101419.34;5087097;28;20072;-60
2022/09/06 05:35:30;;;;;;;3.67;2.20;;;;;;;22.39;52.41;101428.09;5086966;28;20058;-60
2022/09/06 05:37:58;;;;;;;3.33;2.30;;;;;;;22.37;52.25;101424.81;4725078;28;10000677;-61
2022/09/06 05:40:27;;;;;;;3.42;2.20;;;;;;;22.35;52.39;101423.47;5072891;28;21497;-60
2022/09/06 05:42:55;;;;;;;3.03;2.45;;;;;;;22.35;52.78;101426.22;5071612;28;20107;-61
2022/09/06 05:45:23;;;;;;;5.22;2.60;;;;;;;22.32;52.33;101427.59;5068794;28;20085;-61
2022/09/06 05:47:51;;;;;;;5.68;2.53;;;;;;;22.30;52.48;101429.00;5066580;28;20080;-60
2022/09/06 05:50:18;;;;;;;7.93;2.70;;;;;;;22.29;52.51;101432.84;5074011;28;20155;-61
2022/09/06 05:52:46;;;;;;;4.88;2.35;;;;;;;22.28;52.41;101426.53;5074982;28;20049;-60
2022/09/06 05:55:14;;;;;;;3.85;2.20;;;;;;;22.26;52.35;101420.53;5076970;28;20166;-60
2022/09/06 05:57:43;;;;;;;3.20;2.45;;;;;;;22.26;52.31;101428.75;5076459;28;20053;-60
2022/09/06 06:00:12;;;;;;;4.43;2.75;;;;;;;22.25;52.92;101427.13;5079276;28;20048;-60
2022/09/06 06:02:40;;;;;;;5.35;2.40;;;;;;;22.25;52.30;101423.56;5071366;28;20072;-61
2022/09/06 06:05:08;;;;;;;3.38;2.28;;;;;;;22.15;52.13;101415.41;5076153;28;20122;-59
2022/09/06 06:07:36;;;;;;;3.90;1.90;;;;;;;22.23;52.21;101428.50;5077903;28;20098;-61
2022/09/06 06:10:04;;;;;;;3.25;2.60;;;;;;;22.22;52.09;101435.06;5065695;28;20087;-61
2022/09/06 06:12:32;;;;;;;4.45;2.63;;;;;;;22.23;51.93;101428.50;5075229;28;20044;-61
2022/09/06 06:15:01;;;;;;;3.20;2.25;;;;;;;22.25;52.09;101423.56;5079314;28;20059;-63
2022/09/06 06:17:28;;;;;;;4.22;2.60;;;;;;;22.26;52.72;101428.75;5075036;28;20120;-61
2022/09/06 06:19:57;;;;;;;5.55;2.20;;;;;;;22.27;52.50;101427.66;5078146;28;20076;-61
2022/09/06 06:22:24;;;;;;;3.30;2.20;;;;;;;22.31;52.64;101427.88;5085884;28;20076;-61
2022/09/06 06:24:52;;;;;;;2.80;2.28;;;;;;;22.34;52.05;101428.13;5079967;28;20045;-61
2022/09/06 06:27:20;;;;;;;5.38;2.45;;;;;;;22.38;52.37;101422.91;5079808;28;20136;-61
2022/09/06 06:29:48;;;;;;;3.58;2.20;;;;;;;22.40;52.13;101423.44;5070366;28;20080;-61
2022/09/06 06:32:17;;;;;;;4.25;2.13;;;;;;;22.44;51.98;101429.16;5085902;28;20044;-62
2022/09/06 06:34:44;;;;;;;3.88;2.30;;;;;;;22.45;51.93;101428.88;5075313;28;20148;-61
2022/09/06 06:37:12;;;;;;;3.08;2.05;;;;;;;22.47;51.75;101415.69;5084452;28;20129;-61
2022/09/06 06:39:40;;;;;;;2.50;1.85;;;;;;;22.49;51.49;101423.63;5083250;28;20529;-62
2022/09/06 06:42:07;;;;;;;3.55;2.20;;;;;;;22.51;51.47;101422.25;5082305;28;20049;-61
2022/09/06 06:44:35;;;;;;;2.47;2.00;;;;;;;22.53;51.67;101430.16;5084146;28;20048;-61
2022/09/06 06:47:03;;;;;;;3.78;2.08;;;;;;;22.54;51.38;101427.13;5083700;28;20044;-61
2022/09/06 06:49:32;;;;;;;2.92;2.15;;;;;;;22.55;51.68;101426.00;5076882;28;20081;-62
2022/09/06 06:52:00;;;;;;;2.85;1.90;;;;;;;22.56;51.28;101421.34;5084188;28;20071;-61
2022/09/06 06:54:28;;;;;;;2.58;2.08;;;;;;;22.57;51.56;101423.78;5074027;28;20068;-62
2022/09/06 06:56:56;;;;;;;3.65;2.00;;;;;;;22.58;51.45;101424.63;5093087;28;20044;-61
2022/09/06 06:59:23;;;;;;;7.32;2.67;;;;;;;22.58;51.53;101422.69;5080424;28;20079;-61
2022/09/06 07:01:51;;;;;;;4.07;1.92;;;;;;;22.59;51.36;101407.88;5078326;28;20053;-61
2022/09/06 07:04:19;;;;;;;4.32;2.22;;;;;;;22.60;51.66;101409.53;5079144;28;20498;-61
2022/09/06 07:06:51;;;;;;;3.80;2.15;;;;;;;22.59;51.77;101404.34;5073101;28;20060;-61
2022/09/06 07:09:39;;;;;;;3.00;1.88;;;;;;;22.63;51.47;101411.69;5070326;28;20044;-61
2022/09/06 07:12:26;;;;;;;3.45;1.58;;;;;;;22.65;51.66;101414.94;5080422;28;20382;-62
2022/09/06 07:14:54;;;;;;;3.63;1.70;;;;;;;22.67;51.46;101412.75;5075546;28;20080;-61
2022/09/06 07:17:22;;;;;;;2.30;1.60;;;;;;;22.69;51.48;101413.28;5067233;28;20121;-62
2022/09/06 07:19:49;;;;;;;3.88;1.73;;;;;;;22.72;51.53;101411.88;5071703;28;20071;-63
2022/09/06 07:22:40;;;;;;;2.55;1.60;;;;;;;22.74;51.35;101406.91;5090677;28;20505;-61
2022/09/06 07:25:10;;;;;;;5.18;1.90;;;;;;;22.78;51.73;101412.63;5086803;28;20068;-61
2022/09/06 07:27:39;;;;;;;3.55;1.80;;;;;;;22.80;51.73;101402.22;5087457;28;20049;-61
2022/09/06 07:30:16;;;;;;;2.35;1.60;;;;;;;22.80;51.43;101407.72;5074892;28;20057;-61
2022/09/06 07:32:43;;;;;;;2.28;1.70;;;;;;;22.83;51.71;101407.13;5084971;28;20067;-62
2022/09/06 07:35:12;;;;;;;4.03;1.85;;;;;;;22.84;51.60;101411.50;5081329;28;20076;-61
2022/09/06 07:37:41;;;;;;;2.92;1.80;;;;;;;22.85;51.69;101413.16;5074021;28;20049;-61
2022/09/06 07:40:10;;;;;;;4.07;1.73;;;;;;;22.86;51.57;101418.34;5085925;28;20048;-61
2022/09/06 07:42:38;;;;;;;2.42;1.65;;;;;;;22.88;51.80;101418.03;5078647;28;20056;-62
2022/09/06 07:45:07;;;;;;;3.33;1.70;;;;;;;22.89;51.73;101416.94;5081567;28;20480;-62
2022/09/06 07:47:34;;;;;;;5.35;2.05;;;;;;;22.89;51.80;101412.28;5086441;28;20044;-61
2022/09/06 07:50:22;;;;;;;2.47;1.60;;;;;;;22.90;51.83;101415.84;5081473;28;20063;-61
2022/09/06 07:53:11;;;;;;;3.20;2.00;;;;;;;22.90;51.59;101410.34;5089982;28;20139;-62
2022/09/06 07:55:46;;;;;;;3.45;1.60;;;;;;;22.91;51.71;101415.53;5087413;28;20084;-61
2022/09/06 07:58:14;;;;;;;2.67;1.85;;;;;;;22.91;51.91;101411.97;5090753;28;20075;-62
2022/09/06 08:00:42;;;;;;;3.83;1.70;;;;;;;22.91;51.80;101404.56;5074235;28;20045;-62
2022/09/06 08:03:09;;;;;;;3.13;1.80;;;;;;;22.92;51.70;101399.91;5090123;28;20107;-62
2022/09/06 08:05:37;;;;;;;2.78;1.60;;;;;;;22.90;51.97;101394.72;5067204;28;20081;-62
2022/09/06 08:08:26;;;;;;;2.17;1.70;;;;;;;22.91;52.10;101401.03;5078923;28;20059;-62
2022/09/06 08:11:14;;;;;;;2.90;1.80;;;;;;;22.84;51.88;101395.88;5080117;28;20045;-62
2022/09/06 08:13:42;;;;;;;2.65;1.50;;;;;;;22.91;52.11;101409.25;5098852;28;20513;-61
2022/09/06 08:16:12;;;;;;;3.30;1.80;;;;;;;22.92;52.24;101408.13;5066347;28;20109;-62
2022/09/06 08:18:43;;;;;;;2.13;1.77;;;;;;;22.93;52.52;101401.53;5067808;28;20048;-62
2022/09/06 08:21:12;;;;;;;3.17;1.70;;;;;;;22.89;52.23;101398.56;5085608;28;20068;-61
2022/09/06 08:23:46;;;;;;;5.25;1.70;;;;;;;22.95;52.21;101404.81;5085715;28;20082;-61
2022/09/06 08:26:14;;;;;;;2.33;1.35;;;;;;;22.94;52.28;101409.47;5065237;28;20056;-62
2022/09/06 08:28:42;;;;;;;4.78;2.05;;;;;;;22.94;52.29;101414.16;5090267;28;20049;-62
2022/09/06 08:31:11;;;;;;;2.75;1.98;;;;;;;22.94;52.46;101419.63;5085682;28;20063;-61
2022/09/06 08:33:40;;;;;;;2.65;1.77;;;;;;;22.89;52.26;101417.75;5086235;28;20559;-62
2022/09/06 08:36:09;;;;;;;3.03;1.50;;;;;;;22.92;52.13;101432.81;5087630;28;20068;-61
2022/09/06 08:38:37;;;;;;;4.45;1.65;;;;;;;22.94;52.09;101419.63;5067083;28;20052;-61
2022/09/06 08:41:12;;;;;;;3.53;1.73;;;;;;;22.93;52.54;101410.59;5079155;28;20136;-62
2022/09/06 08:43:47;;;;;;;2.47;1.80;;;;;;;22.93;52.33;101415.25;5085630;28;20079;-61
2022/09/06 08:46:17;;;;;;;2.85;1.88;;;;;;;22.93;52.29;101410.59;5080917;28;20045;-62
2022/09/06 08:48:45;;;;;;;2.78;1.77;;;;;;;22.94;52.58;101400.44;5085504;28;20071;-61
2022/09/06 08:51:42;;;;;;;6.47;2.08;;;;;;;22.94;52.80;101408.66;5085116;28;20052;-62
2022/09/06 08:54:16;;;;;;;3.53;1.60;;;;;;;22.97;53.02;101410.81;5091828;28;20074;-62
2022/09/06 08:56:58;;;;;;;2.38;1.67;;;;;;;22.99;53.00;101398.47;5067634;28;20087;-61
2022/09/06 08:59:28;;;;;;;3.20;1.77;;;;;;;22.99;52.87;101409.41;5079617;28;20052;-62
2022/09/06 09:02:04;;;;;;;4.07;1.58;;;;;;;23.02;53.06;101402.53;5079133;28;20159;-61
2022/09/06 09:04:35;;;;;;;2.97;1.65;;;;;;;23.03;52.77;101406.91;5083116;28;20112;-61
2022/09/06 09:07:23;;;;;;;2.80;1.52;;;;;;;23.01;52.71;101400.91;5085498;28;20086;-62
2022/09/06 09:09:54;;;;;;;2.40;1.42;;;;;;;23.05;53.14;101410.19;5071791;28;20044;-62
2022/09/06 09:12:24;;;;;;;2.70;1.88;;;;;;;23.05;52.58;101396.47;5079431;28;20075;-62
2022/09/06 09:15:00;;;;;;;2.50;1.35;;;;;;;23.07;52.73;101399.75;5076626;28;20144;-62
2022/09/06 09:17:31;;;;;;;3.53;2.05;;;;;;;23.05;53.10;101402.78;5085251;28;20052;-62
2022/09/06 09:19:59;;;;;;;1.88;1.27;;;;;;;23.09;52.82;101399.44;5083599;28;20048;-61
2022/09/06 09:22:27;;;;;;;3.40;1.40;;;;;;;23.09;53.11;101385.75;5074474;28;20063;-61
2022/09/06 09:24:59;;;;;;;2.67;1.85;;;;;;;23.11;53.39;101387.06;5081015;28;20563;-62
2022/09/06 09:27:29;;;;;;;3.58;1.55;;;;;;;23.11;53.27;101389.81;5085324;28;20048;-62
2022/09/06 09:30:00;;;;;;;2.15;1.52;;;;;;;23.14;52.92;101394.72;5085691;28;20055;-62
2022/09/06 09:32:48;;;;;;;6.88;1.58;;;;;;;23.17;53.07;101393.31;5083445;28;20048;-62
2022/09/06 09:35:22;;;;;;;3.88;1.30;;;;;;;23.16;53.36;101391.69;5077406;28;20122;-62
2022/09/06 09:37:59;;;;;;;2.50;1.40;;;;;;;23.19;53.57;101405.63;5071445;28;20048;-62
2022/09/06 09:40:38;;;;;;;2.65;1.48;;;;;;;23.21;53.53;101402.59;5084116;28;20108;-62
2022/09/06 09:43:15;;;;;;;3.22;1.42;;;;;;;23.21;53.59;101392.44;5070122;28;20414;-62
2022/09/06 09:45:44;;;;;;;2.05;1.80;;;;;;;23.23;53.63;101397.63;5081657;28;20068;-62
2022/09/06 09:48:26;;;;;;;4.13;1.50;;;;;;;23.23;53.52;101390.22;5084286;28;20048;-62
2022/09/06 09:50:55;;;;;;;5.15;1.70;;;;;;;23.24;53.15;101388.28;5083977;28;20106;-61
2022/09/06 09:53:25;;;;;;;3.63;1.35;;;;;;;23.24;53.31;101391.03;5083404;28;20076;-62
2022/09/06 09:55:57;;;;;;;3.40;1.48;;;;;;;23.25;53.57;101387.19;5092991;28;20365;-62
2022/09/06 09:58:33;;;;;;;4.70;2.45;;;;;;;23.27;53.76;101384.97;5064689;28;20088;-62
2022/09/06 10:01:15;;;;;;;5.25;1.80;;;;;;;23.29;53.33;101386.31;5070302;28;20454;-62
2022/09/06 10:03:43;;;;;;;2.70;1.50;;;;;;;23.31;53.53;101395.06;5083764;28;20109;-61
2022/09/06 10:06:31;;;;;;;2.47;1.60;;;;;;;23.35;53.62;101403.50;5084649;28;20048;-62
2022/09/06 10:09:30;;;;;;;5.18;1.90;;;;;;;23.39;53.74;101407.31;5067323;28;20127;-62
2022/09/06 10:12:00;;;;;;;4.18;1.70;;;;;;;23.43;53.74;101410.28;5079643;28;20076;-62
2022/09/06 10:14:32;;;;;;;2.92;1.60;;;;;;;23.44;53.45;101399.00;5078772;28;20052;-62
2022/09/06 10:17:00;;;;;;;3.33;2.03;;;;;;;23.47;54.11;101398.41;5083095;28;20072;-62
2022/09/06 10:19:42;;;;;;;2.92;1.70;;;;;;;23.52;53.82;101405.75;5083502;28;20079;-62
2022/09/06 10:22:26;;;;;;;3.78;1.85;;;;;;;23.56;53.94;101406.84;5081527;28;20048;-62
2022/09/06 10:25:19;;;;;;;2.60;1.60;;;;;;;23.62;53.74;101413.88;5071112;28;20347;-62
2022/09/06 10:28:04;;;;;;;3.55;1.60;;;;;;;23.66;53.65;101415.75;5073700;28;20060;-62
2022/09/06 10:30:47;;;;;;;3.67;1.90;;;;;;;23.69;53.79;101401.44;5080595;28;20065;-62
2022/09/06 10:33:25;;;;;;;3.67;1.75;;;;;;;23.75;53.66;101406.84;5076321;28;20068;-62
2022/09/06 10:35:57;;;;;;;5.90;2.47;;;;;;;23.78;53.40;101401.59;5077223;28;20072;-62
2022/09/06 10:38:37;;;;;;;2.30;1.67;;;;;;;23.80;53.63;101402.09;5081094;28;20064;-62
2022/09/06 10:41:20;;;;;;;2.92;1.85;;;;;;;23.82;53.81;101386.16;5074511;28;20410;-62
2022/09/06 10:43:56;;;;;;;1.85;1.40;;;;;;;23.86;53.79;101392.69;5077569;28;20494;-62
2022/09/06 10:46:27;;;;;;;4.82;1.67;;;;;;;23.88;53.44;101387.69;5079577;28;20068;-62
2022/09/06 10:48:56;;;;;;;4.50;1.80;;;;;;;23.91;53.81;101384.38;5078289;28;20052;-62
2022/09/06 10:51:34;;;;;;;2.20;1.70;;;;;;;23.96;53.73;101389.78;5084791;28;20053;-62
2022/09/06 10:54:08;;;;;;;4.47;2.25;;;;;;;23.98;53.81;101387.53;5067947;28;20095;-62
2022/09/06 10:56:42;;;;;;;4.63;2.00;;;;;;;24.02;53.96;101394.06;5092335;28;20048;-62
2022/09/06 10:59:18;;;;;;;2.13;1.70;;;;;;;24.02;53.59;101385.03;5082773;28;20106;-62
2022/09/06 11:02:12;;;;;;;4.63;1.70;;;;;;;24.04;53.44;101391.03;5087355;28;20065;-62
2022/09/06 11:04:41;;;;;;;4.25;1.63;;;;;;;24.06;53.39;101390.72;5072796;28;20057;-62
2022/09/06 11:07:33;;;;;;;5.53;1.77;;;;;;;24.10;53.71;101391.75;5086460;28;20494;-62
2022/09/06 11:10:09;;;;;;;6.15;1.85;;;;;;;24.11;53.13;101396.97;5068985;28;20067;-62
2022/09/06 11:12:45;;;;;;;2.92;2.10;;;;;;;24.13;53.11;101393.91;5080280;28;20048;-62
2022/09/06 11:15:14;;;;;;;5.75;2.13;;;;;;;24.13;53.01;101397.47;5072127;28;20084;-62
2022/09/06 11:17:48;;;;;;;3.85;2.20;;;;;;;24.13;52.68;101404.91;5087069;28;20521;-63
2022/09/06 11:20:22;;;;;;;3.70;1.77;;;;;;;24.14;52.84;101406.53;5083814;28;20429;-62
2022/09/06 11:23:06;;;;;;;3.15;1.50;;;;;;;24.15;52.58;101408.16;5087409;28;20094;-62
2022/09/06 11:26:15;;;;;;;3.72;1.83;;;;;;;24.15;52.47;101399.91;5073662;28;20068;-62
2022/09/06 11:28:47;;;;;;;3.95;1.50;;;;;;;24.18;52.33;101413.88;5053094;28;20056;-62
2022/09/06 11:31:24;;;;;;;2.95;2.20;;;;;;;24.20;52.63;101417.13;5080548;28;20147;-63
2022/09/06 11:34:19;;;;;;;;;;;;;;;24.22;51.69;101412.16;5075340;28;20047;-62
2022/09/06 11:36:49;;;;;;;3.78;1.60;;;;;;;24.23;52.07;101412.97;5074798;28;19963;-62
2022/09/06 11:39:26;;;;;;;4.40;2.20;;;;;;;24.24;52.04;101414.59;5071587;28;20053;-62
2022/09/06 11:43:01;;;;;;;3.00;1.92;;;;;;;24.30;51.42;101402.41;5067062;28;20108;-62
2022/09/06 11:45:40;;;;;;;4.05;2.20;;;;;;;24.33;51.38;101404.56;5079511;28;20041;-62
2022/09/06 11:48:33;;;;;;;2.22;1.58;;;;;;;24.38;52.21;101403.66;5079261;28;20132;-63
2022/09/06 11:51:06;;;;;;;3.30;1.67;;;;;;;24.43;51.86;101401.63;5069531;28;20077;-62